Time;durP1;ratioP1;P1;durP2;ratioP2;P2;SDS_P1;SDS_P2;PMS_P1;PMS_P2;Temp;Humidity;BMP_temperature;BMP_pressure;BME280_temperature;BME280_humidity;BME280_pressure;Samples;Min_cycle;Max_cycle;Signal;HPM_P1;HPM_P2
2023/04/15 00:01:04;;;;;;;7.30;4.10;;;11.60;61.60;;;;;;5032520;28;20207;-63
2023/04/15 00:03:30;;;;;;;6.77;4.40;;;11.60;61.60;;;;;;5039630;28;20556;-63
2023/04/15 00:05:57;;;;;;;9.17;4.60;;;11.50;61.90;;;;;;5042652;28;20194;-63
2023/04/15 00:08:23;;;;;;;6.40;4.30;;;11.50;62.00;;;;;;5036717;28;20642;-63
2023/04/15 00:10:49;;;;;;;5.63;4.20;;;11.50;62.50;;;;;;5041827;28;20594;-63
2023/04/15 00:13:15;;;;;;;9.43;5.60;;;11.50;62.50;;;;;;5038900;28;20464;-63
2023/04/15 00:15:41;;;;;;;6.60;4.70;;;11.50;62.50;;;;;;5046071;28;20434;-63
2023/04/15 00:18:07;;;;;;;8.77;6.07;;;11.50;63.20;;;;;;5040801;28;20196;-63
2023/04/15 00:20:34;;;;;;;9.63;7.30;;;11.40;64.70;;;;;;5039358;28;20562;-63
2023/04/15 00:23:00;;;;;;;12.00;7.77;;;11.40;64.30;;;;;;5036566;28;20492;-63
2023/04/15 00:25:26;;;;;;;11.07;9.00;;;11.40;65.00;;;;;;5040448;28;20930;-63
2023/04/15 00:27:51;;;;;;;8.93;7.53;;;11.30;65.80;;;;;;5045624;28;20441;-63
2023/04/15 00:30:17;;;;;;;9.60;7.87;;;11.30;67.30;;;;;;5040616;28;20199;-63
2023/04/15 00:32:43;;;;;;;9.17;7.73;;;11.20;67.40;;;;;;5038396;28;20219;-63
2023/04/15 00:35:09;;;;;;;9.13;8.13;;;11.20;67.70;;;;;;5042625;28;20521;-63
2023/04/15 00:37:35;;;;;;;11.27;8.53;;;11.20;68.80;;;;;;5039297;28;20317;-63
2023/04/15 00:40:04;;;;;;;11.07;8.07;;;11.10;69.70;;;;;;5042254;28;20469;-63
2023/04/15 00:42:30;;;;;;;13.57;7.90;;;11.10;69.80;;;;;;5041547;28;20488;-63
2023/04/15 00:44:56;;;;;;;11.27;8.10;;;11.10;70.20;;;;;;5040026;28;20441;-63
2023/04/15 00:47:22;;;;;;;9.67;7.83;;;11.00;71.50;;;;;;5031541;28;20183;-63
2023/04/15 00:49:47;;;;;;;8.87;7.00;;;11.00;72.40;;;;;;5040072;28;20910;-63
2023/04/15 00:52:13;;;;;;;12.07;6.90;;;10.90;72.60;;;;;;5053019;28;20446;-63
2023/04/15 00:54:38;;;;;;;9.23;7.90;;;11.00;73.20;;;;;;5046093;28;20194;-62
2023/04/15 00:57:05;;;;;;;10.57;6.80;;;11.00;73.50;;;;;;5040768;28;20200;-63
2023/04/15 00:59:32;;;;;;;9.47;7.53;;;11.00;73.50;;;;;;5036753;28;20214;-63
2023/04/15 01:01:58;;;;;;;11.77;8.10;;;10.90;74.10;;;;;;5040380;28;20480;-63
2023/04/15 01:04:24;;;;;;;12.47;8.27;;;10.90;74.70;;;;;;5031679;28;20824;-63
2023/04/15 01:06:50;;;;;;;10.67;8.40;;;10.90;75.10;;;;;;5040824;28;20541;-63
2023/04/15 01:09:16;;;;;;;6.77;6.07;;;10.90;75.80;;;;;;5041115;28;20457;-63
2023/04/15 01:11:43;;;;;;;9.30;6.60;;;10.90;76.00;;;;;;5037400;28;20470;-63
2023/04/15 01:14:09;;;;;;;7.70;5.63;;;10.90;76.00;;;;;;5039206;28;20550;-63
2023/04/15 01:16:38;;;;;;;7.30;5.43;;;10.90;76.30;;;;;;5037025;28;20522;-63
2023/04/15 01:19:07;;;;;;;6.50;5.43;;;10.90;76.40;;;;;;5038163;28;20461;-63
2023/04/15 01:21:37;;;;;;;8.10;5.53;;;10.90;76.50;;;;;;5032605;28;20568;-63
2023/04/15 01:24:07;;;;;;;6.83;5.20;;;10.90;77.10;;;;;;5036966;28;20791;-63
2023/04/15 01:26:33;;;;;;;8.37;5.77;;;10.90;77.50;;;;;;5036224;28;20820;-63
2023/04/15 01:28:58;;;;;;;7.10;6.20;;;10.90;77.80;;;;;;5037020;28;20450;-63
2023/04/15 01:31:24;;;;;;;7.93;5.40;;;10.80;78.00;;;;;;5032655;28;20208;-63
2023/04/15 01:33:50;;;;;;;8.87;6.17;;;10.80;78.70;;;;;;5053203;28;20219;-62
2023/04/15 01:36:16;;;;;;;7.27;4.93;;;10.80;79.00;;;;;;5039050;28;20270;-62
2023/04/15 01:38:41;;;;;;;7.30;5.40;;;10.70;79.20;;;;;;5033134;28;20537;-62
2023/04/15 01:41:07;;;;;;;8.10;5.60;;;10.70;80.20;;;;;;5037984;28;20215;-63
2023/04/15 01:43:36;;;;;;;9.73;4.93;;;10.70;80.30;;;;;;5040738;28;20179;-63
2023/04/15 01:46:01;;;;;;;6.30;5.27;;;10.70;80.50;;;;;;5035494;28;20241;-63
2023/04/15 01:48:27;;;;;;;8.43;5.43;;;10.70;80.80;;;;;;5033254;28;20426;-63
2023/04/15 01:50:56;;;;;;;12.03;7.27;;;10.70;81.20;;;;;;5040625;28;20569;-63
2023/04/15 01:53:22;;;;;;;10.07;6.63;;;10.60;81.80;;;;;;5051280;28;20198;-63
2023/04/15 01:55:47;;;;;;;7.43;6.37;;;10.60;82.50;;;;;;5035793;28;20966;-63
2023/04/15 01:58:13;;;;;;;10.13;7.50;;;10.60;83.30;;;;;;5050638;28;20180;-63
2023/04/15 02:00:39;;;;;;;11.57;8.40;;;10.60;84.40;;;;;;5034651;28;20246;-63
2023/04/15 02:03:05;;;;;;;10.50;6.13;;;10.50;85.10;;;;;;5037399;28;20809;-63
2023/04/15 02:05:31;;;;;;;8.60;6.30;;;10.50;85.80;;;;;;5037724;28;20433;-63
2023/04/15 02:07:56;;;;;;;8.80;6.20;;;10.40;86.10;;;;;;5045728;28;20187;-63
2023/04/15 02:10:22;;;;;;;5.83;5.23;;;10.40;86.40;;;;;;5041382;28;20208;-63
2023/04/15 02:12:48;;;;;;;6.47;5.10;;;10.40;87.00;;;;;;5038054;28;20203;-63
2023/04/15 02:15:14;;;;;;;10.20;4.83;;;10.40;86.90;;;;;;5042638;28;20180;-63
2023/04/15 02:17:39;;;;;;;10.50;5.70;;;10.40;87.10;;;;;;5033869;28;20374;-63
2023/04/15 02:20:07;;;;;;;5.33;4.70;;;10.40;87.30;;;;;;5036500;28;20917;-63
2023/04/15 02:22:33;;;;;;;6.33;4.90;;;10.40;87.60;;;;;;5033902;28;20205;-63
2023/04/15 02:24:58;;;;;;;10.57;8.60;;;10.30;87.90;;;;;;5037035;28;20442;-63
2023/04/15 02:27:24;;;;;;;10.80;7.63;;;10.30;88.20;;;;;;5033377;28;20438;-63
2023/04/15 02:29:50;;;;;;;10.60;8.03;;;10.30;89.60;;;;;;5038532;28;20214;-63
2023/04/15 02:32:16;;;;;;;9.40;8.40;;;10.20;90.10;;;;;;5032733;28;20188;-63
2023/04/15 02:34:42;;;;;;;13.20;9.30;;;10.20;90.60;;;;;;5035676;28;20634;-63
2023/04/15 02:37:11;;;;;;;11.57;7.27;;;10.00;91.00;;;;;;5041822;28;20200;-63
2023/04/15 02:39:37;;;;;;;9.90;7.60;;;9.80;92.10;;;;;;5033315;28;20437;-63
2023/04/15 02:42:04;;;;;;;10.27;7.03;;;9.60;93.40;;;;;;5042447;28;20481;-62
2023/04/15 02:44:31;;;;;;;10.10;6.80;;;9.50;94.00;;;;;;5033279;28;20465;-62
2023/04/15 02:46:57;;;;;;;11.93;6.90;;;9.50;94.40;;;;;;5054872;28;20447;-63
2023/04/15 02:49:24;;;;;;;12.67;6.80;;;9.50;94.60;;;;;;5043656;28;20422;-62
2023/04/15 02:51:50;;;;;;;9.50;7.10;;;9.50;94.80;;;;;;5045400;28;20536;-63
2023/04/15 02:54:17;;;;;;;8.47;6.20;;;9.50;95.10;;;;;;5048240;28;20529;-63
2023/04/15 02:56:42;;;;;;;11.70;7.23;;;9.40;95.80;;;;;;5050647;28;20191;-63
2023/04/15 02:59:08;;;;;;;8.53;6.47;;;9.30;96.20;;;;;;5040574;28;20949;-63
2023/04/15 03:01:33;;;;;;;8.03;6.50;;;9.40;96.60;;;;;;5042192;28;20212;-64
2023/04/15 03:03:59;;;;;;;10.73;7.00;;;9.30;97.20;;;;;;5044340;28;20295;-63
2023/04/15 03:06:25;;;;;;;10.70;7.37;;;9.30;97.50;;;;;;5043474;28;20184;-63
2023/04/15 03:08:50;;;;;;;10.57;6.83;;;9.30;97.80;;;;;;5045177;28;20219;-63
2023/04/15 03:11:17;;;;;;;8.63;6.93;;;9.20;98.00;;;;;;5034295;28;20212;-63
2023/04/15 03:13:43;;;;;;;10.17;6.83;;;9.20;98.60;;;;;;5045562;28;20249;-63
2023/04/15 03:16:09;;;;;;;12.30;7.57;;;9.20;98.60;;;;;;5043987;28;20506;-63
2023/04/15 03:18:35;;;;;;;11.60;6.87;;;9.20;99.00;;;;;;5037519;28;20745;-63
2023/04/15 03:21:01;;;;;;;12.87;6.90;;;9.20;99.40;;;;;;5043211;28;20564;-63
2023/04/15 03:23:27;;;;;;;10.17;7.30;;;9.20;99.90;;;;;;5039758;28;20179;-63
2023/04/15 03:25:54;;;;;;;9.03;7.07;;;9.10;99.90;;;;;;5040638;28;20535;-63
2023/04/15 03:28:20;;;;;;;13.20;7.50;;;9.10;99.90;;;;;;5038175;28;20176;-63
2023/04/15 03:30:45;;;;;;;9.57;7.03;;;9.10;99.90;;;;;;5041865;28;20477;-63
2023/04/15 03:33:11;;;;;;;12.63;7.50;;;9.10;99.90;;;;;;5040043;28;20195;-63
2023/04/15 03:35:37;;;;;;;11.70;7.77;;;9.10;99.90;;;;;;5040307;28;21666;-63
2023/04/15 03:38:02;;;;;;;8.77;7.03;;;9.10;99.90;;;;;;5043137;28;20653;-63
2023/04/15 03:40:28;;;;;;;8.93;6.80;;;9.10;99.90;;;;;;5038656;28;20242;-63
2023/04/15 03:42:53;;;;;;;8.50;6.87;;;9.10;99.90;;;;;;5042023;28;20219;-63
2023/04/15 03:45:19;;;;;;;12.67;6.53;;;9.10;99.90;;;;;;5043187;28;20175;-63
2023/04/15 03:47:45;;;;;;;11.87;7.77;;;9.00;99.90;;;;;;5044219;28;20290;-63
2023/04/15 03:50:11;;;;;;;9.20;6.00;;;8.90;99.90;;;;;;5039817;28;20199;-63
2023/04/15 03:52:37;;;;;;;8.77;6.47;;;8.90;99.90;;;;;;5043671;28;20238;-63
2023/04/15 03:55:02;;;;;;;11.63;7.03;;;8.90;99.90;;;;;;5041828;28;20441;-63
2023/04/15 03:57:28;;;;;;;6.97;5.63;;;8.90;99.90;;;;;;5042590;28;20287;-63
2023/04/15 03:59:54;;;;;;;9.60;6.30;;;8.90;99.90;;;;;;5053507;28;20247;-63
2023/04/15 04:02:19;;;;;;;9.97;6.97;;;9.00;99.90;;;;;;5040583;28;20466;-63
2023/04/15 04:04:45;;;;;;;7.50;6.53;;;9.00;99.90;;;;;;5039373;28;20187;-63
2023/04/15 04:07:22;;;;;;;10.60;7.10;;;9.00;99.90;;;;;;5039177;28;20263;-63
2023/04/15 04:09:47;;;;;;;8.53;6.67;;;8.90;99.90;;;;;;5040796;28;20194;-63
2023/04/15 04:12:13;;;;;;;8.83;6.20;;;8.90;99.90;;;;;;5044365;28;20443;-63
2023/04/15 04:14:38;;;;;;;11.03;7.23;;;8.90;99.90;;;;;;5045343;28;20202;-63
2023/04/15 04:17:04;;;;;;;11.77;7.70;;;8.90;99.90;;;;;;5038602;28;20676;-63
2023/04/15 04:19:30;;;;;;;11.13;7.30;;;8.90;99.90;;;;;;5042341;28;20654;-63
2023/04/15 04:21:55;;;;;;;7.97;6.47;;;8.90;99.90;;;;;;5037182;28;20278;-63
2023/04/15 04:24:21;;;;;;;9.03;7.10;;;8.90;99.90;;;;;;5037537;28;20189;-63
2023/04/15 04:26:46;;;;;;;11.53;7.53;;;8.90;99.90;;;;;;5042393;28;20183;-63
2023/04/15 04:29:12;;;;;;;18.23;7.30;;;8.90;99.90;;;;;;5039268;28;20204;-63
2023/04/15 04:31:37;;;;;;;10.33;6.37;;;8.90;99.90;;;;;;5039778;28;20229;-63
2023/04/15 04:34:03;;;;;;;13.33;7.53;;;8.80;99.90;;;;;;5040681;28;20199;-63
2023/04/15 04:36:28;;;;;;;10.10;6.80;;;8.80;99.90;;;;;;5039937;28;20192;-64
2023/04/15 04:38:54;;;;;;;8.57;6.60;;;8.80;99.90;;;;;;5037390;28;20192;-63
2023/04/15 04:41:20;;;;;;;10.00;6.90;;;8.80;99.90;;;;;;5040934;28;20242;-63
2023/04/15 04:43:46;;;;;;;12.50;6.97;;;8.80;99.90;;;;;;5046982;28;20453;-63
2023/04/15 04:46:12;;;;;;;8.40;6.20;;;8.80;99.90;;;;;;5041790;28;20184;-63
2023/04/15 04:48:38;;;;;;;6.83;6.13;;;8.80;99.90;;;;;;5051202;28;20188;-63
2023/04/15 04:51:04;;;;;;;10.10;5.80;;;8.80;99.90;;;;;;5041908;28;21039;-63
2023/04/15 04:53:29;;;;;;;10.10;6.83;;;8.80;99.90;;;;;;5043789;28;20446;-63
2023/04/15 04:55:55;;;;;;;8.67;6.67;;;8.80;99.90;;;;;;5039719;28;20285;-63
2023/04/15 04:58:21;;;;;;;10.30;6.40;;;8.80;99.90;;;;;;5040159;28;20434;-63
2023/04/15 05:00:46;;;;;;;7.10;5.53;;;8.80;99.90;;;;;;5040970;28;20808;-63
2023/04/15 05:03:12;;;;;;;7.43;5.70;;;8.80;99.90;;;;;;5039033;28;20187;-63
2023/04/15 05:05:39;;;;;;;11.17;7.10;;;8.80;99.90;;;;;;5042873;28;20218;-63
2023/04/15 05:08:06;;;;;;;12.53;7.10;;;8.80;99.90;;;;;;5042164;28;20233;-63
2023/04/15 05:10:31;;;;;;;9.10;6.50;;;8.80;99.90;;;;;;5039709;28;20545;-63
2023/04/15 05:12:57;;;;;;;14.40;7.00;;;8.80;99.90;;;;;;5043846;28;21049;-63
2023/04/15 05:15:22;;;;;;;9.93;6.40;;;8.80;99.90;;;;;;5046594;28;20180;-63
2023/04/15 05:17:48;;;;;;;11.77;6.03;;;8.70;99.90;;;;;;5040629;28;20187;-63
2023/04/15 05:20:14;;;;;;;8.10;6.17;;;8.70;99.90;;;;;;5038988;28;20290;-63
2023/04/15 05:22:40;;;;;;;7.60;5.53;;;8.60;99.90;;;;;;5038983;28;20515;-63
2023/04/15 05:25:06;;;;;;;10.23;5.17;;;8.60;99.90;;;;;;5041244;28;20460;-63
2023/04/15 05:27:31;;;;;;;6.83;5.00;;;8.60;99.90;;;;;;5040575;28;20184;-63
2023/04/15 05:29:57;;;;;;;8.60;5.70;;;8.60;99.90;;;;;;5040784;28;20967;-63
2023/04/15 05:32:23;;;;;;;7.27;5.40;;;8.60;99.90;;;;;;5041688;28;20314;-63
2023/04/15 05:34:48;;;;;;;5.53;4.67;;;8.50;99.90;;;;;;5043022;28;20656;-63
2023/04/15 05:37:14;;;;;;;6.47;4.50;;;8.50;99.90;;;;;;5040564;28;20186;-63
2023/04/15 05:39:39;;;;;;;5.47;4.80;;;8.50;99.90;;;;;;5039836;28;20325;-63
2023/04/15 05:42:05;;;;;;;7.63;5.20;;;8.60;99.90;;;;;;5038104;28;20541;-63
2023/04/15 05:44:31;;;;;;;7.70;5.53;;;8.60;99.90;;;;;;5039504;28;20180;-63
2023/04/15 05:46:57;;;;;;;6.40;5.17;;;8.70;99.90;;;;;;5034302;28;20746;-63
2023/04/15 05:49:22;;;;;;;7.27;5.63;;;8.70;99.90;;;;;;5036804;28;20226;-63
2023/04/15 05:51:48;;;;;;;6.73;5.17;;;8.80;99.90;;;;;;5040362;28;20211;-63
2023/04/15 05:54:14;;;;;;;5.93;4.97;;;8.80;99.90;;;;;;5037542;28;20194;-63
2023/04/15 05:56:39;;;;;;;9.10;5.47;;;8.80;99.90;;;;;;5038269;28;20329;-63
2023/04/15 05:59:05;;;;;;;8.37;5.57;;;8.80;99.90;;;;;;5039088;28;20183;-63
2023/04/15 06:01:33;;;;;;;6.10;5.20;;;8.90;99.90;;;;;;5036598;28;20298;-63
2023/04/15 06:03:59;;;;;;;6.37;4.67;;;8.90;99.90;;;;;;5034672;28;20610;-63
2023/04/15 06:06:26;;;;;;;8.00;4.80;;;8.90;99.90;;;;;;5036109;28;20430;-63
2023/04/15 06:08:51;;;;;;;9.43;4.47;;;8.90;99.90;;;;;;5038100;28;20904;-63
2023/04/15 06:11:17;;;;;;;7.57;5.20;;;8.90;99.90;;;;;;5041632;28;20458;-63
2023/04/15 06:13:43;;;;;;;7.53;5.07;;;8.90;99.90;;;;;;5040237;28;20176;-63
2023/04/15 06:16:08;;;;;;;10.07;5.70;;;9.00;99.90;;;;;;5039998;28;20184;-63
2023/04/15 06:18:34;;;;;;;9.00;5.63;;;9.00;99.90;;;;;;5034018;28;20286;-63
2023/04/15 06:20:59;;;;;;;7.70;5.70;;;9.10;99.90;;;;;;5038724;28;20335;-63
2023/04/15 06:23:25;;;;;;;9.07;5.53;;;9.20;99.90;;;;;;5034799;28;20538;-63
2023/04/15 06:25:50;;;;;;;7.20;4.97;;;9.20;99.90;;;;;;5036866;28;20198;-63
2023/04/15 06:28:16;;;;;;;8.40;5.03;;;9.30;99.90;;;;;;5039372;28;20218;-63
2023/04/15 06:30:41;;;;;;;5.60;4.73;;;9.30;99.90;;;;;;5039598;28;20274;-63
2023/04/15 06:33:07;;;;;;;7.03;5.77;;;9.40;99.90;;;;;;5051648;28;20194;-63
2023/04/15 06:35:33;;;;;;;8.47;5.90;;;9.50;99.90;;;;;;5039758;28;20191;-63
2023/04/15 06:37:59;;;;;;;8.40;5.53;;;9.50;99.90;;;;;;5044310;28;20717;-64
2023/04/15 06:40:24;;;;;;;9.20;6.20;;;9.60;99.90;;;;;;5038976;28;20539;-64
2023/04/15 06:42:50;;;;;;;8.70;6.17;;;9.60;99.90;;;;;;5035560;28;20212;-67
2023/04/15 06:45:16;;;;;;;7.77;5.53;;;9.70;99.90;;;;;;5036963;28;20216;-63
2023/04/15 06:47:42;;;;;;;9.73;5.90;;;9.80;99.90;;;;;;5039835;28;20176;-63
2023/04/15 06:50:08;;;;;;;12.57;6.30;;;9.80;99.90;;;;;;5049902;28;20810;-63
2023/04/15 06:52:34;;;;;;;6.70;5.70;;;9.90;99.90;;;;;;5045195;28;20191;-63
2023/04/15 06:55:01;;;;;;;7.30;5.50;;;9.90;99.90;;;;;;5039825;28;20467;-63
2023/04/15 06:57:27;;;;;;;10.37;5.90;;;10.00;99.90;;;;;;5043042;28;20430;-63
2023/04/15 06:59:53;;;;;;;9.90;6.07;;;10.10;99.90;;;;;;5041286;28;20473;-64
2023/04/15 07:02:19;;;;;;;12.00;6.10;;;10.20;99.90;;;;;;5036593;28;20569;-64
2023/04/15 07:04:45;;;;;;;8.53;5.73;;;10.30;99.90;;;;;;5040880;28;20509;-64
2023/04/15 07:07:11;;;;;;;6.83;5.80;;;10.40;99.90;;;;;;5023682;28;20426;-64
2023/04/15 07:09:37;;;;;;;8.20;5.43;;;10.40;99.90;;;;;;5038955;28;20738;-64
2023/04/15 07:12:03;;;;;;;6.60;5.43;;;10.50;99.90;;;;;;5039582;28;20591;-66
2023/04/15 07:14:28;;;;;;;7.33;5.63;;;10.60;99.90;;;;;;5040189;28;20545;-64
2023/04/15 07:16:55;;;;;;;11.70;5.20;;;10.70;99.90;;;;;;5041477;28;20426;-65
2023/04/15 07:19:20;;;;;;;5.53;4.93;;;10.70;99.90;;;;;;5036654;28;20574;-64
2023/04/15 07:21:46;;;;;;;6.20;4.77;;;10.80;99.90;;;;;;5036872;28;20473;-64
2023/04/15 07:24:15;;;;;;;5.73;4.20;;;10.90;99.90;;;;;;5037134;28;20176;-62
2023/04/15 07:26:41;;;;;;;6.17;4.67;;;11.00;99.90;;;;;;5043629;28;20220;-63
2023/04/15 07:29:06;;;;;;;6.67;4.50;;;11.10;99.90;;;;;;5036748;28;20485;-63
2023/04/15 07:31:32;;;;;;;7.73;4.30;;;11.10;99.90;;;;;;5035107;28;20754;-63
2023/04/15 07:33:58;;;;;;;6.13;5.10;;;11.20;99.90;;;;;;5035172;28;20917;-63
2023/04/15 07:36:24;;;;;;;6.67;5.40;;;11.20;99.90;;;;;;5038906;28;20820;-63
2023/04/15 07:38:49;;;;;;;11.63;4.90;;;11.30;99.90;;;;;;5046221;28;20466;-63
2023/04/15 07:41:16;;;;;;;6.70;5.23;;;11.30;99.90;;;;;;5042365;28;20732;-63
2023/04/15 07:43:41;;;;;;;6.57;4.70;;;11.30;99.90;;;;;;5043198;28;20207;-63
2023/04/15 07:46:07;;;;;;;5.20;4.10;;;11.40;99.90;;;;;;5041520;28;20966;-64
2023/04/15 07:48:33;;;;;;;6.20;4.20;;;11.50;99.90;;;;;;5035315;28;20747;-63
2023/04/15 07:50:59;;;;;;;8.00;5.43;;;11.50;99.90;;;;;;5044841;28;20564;-63
2023/04/15 07:53:25;;;;;;;8.80;4.50;;;11.60;99.90;;;;;;5040734;28;20179;-63
2023/04/15 07:55:51;;;;;;;6.93;4.07;;;11.70;99.90;;;;;;5043572;28;20418;-62
2023/04/15 07:58:16;;;;;;;7.03;4.30;;;11.70;99.90;;;;;;5040858;28;20770;-63
2023/04/15 08:00:42;;;;;;;8.77;4.30;;;11.80;99.90;;;;;;5038554;28;20261;-63
2023/04/15 08:03:07;;;;;;;5.87;3.70;;;11.90;99.90;;;;;;5040061;28;20463;-63
2023/04/15 08:05:33;;;;;;;5.50;4.57;;;12.00;99.90;;;;;;5032017;28;20474;-63
2023/04/15 08:07:59;;;;;;;8.77;4.63;;;12.10;99.90;;;;;;5042492;28;20187;-62
2023/04/15 08:10:24;;;;;;;12.07;4.77;;;12.20;99.90;;;;;;5038419;28;20196;-63
2023/04/15 08:12:53;;;;;;;10.00;4.10;;;12.30;99.90;;;;;;5034812;28;20224;-63
2023/04/15 08:15:19;;;;;;;9.73;4.53;;;12.40;99.90;;;;;;5035815;28;20168;-63
2023/04/15 08:17:45;;;;;;;4.50;3.97;;;12.60;99.90;;;;;;5040679;28;20473;-63
2023/04/15 08:20:12;;;;;;;9.67;4.30;;;12.70;99.90;;;;;;5032876;28;20470;-63
2023/04/15 08:22:38;;;;;;;13.67;9.20;;;12.80;99.90;;;;;;5042262;28;20461;-63
2023/04/15 08:25:04;;;;;;;7.63;5.63;;;12.90;99.90;;;;;;5036040;28;20893;-63
2023/04/15 08:27:30;;;;;;;7.13;5.00;;;13.10;99.90;;;;;;5034956;28;20520;-63
2023/04/15 08:29:55;;;;;;;7.00;5.53;;;13.20;99.90;;;;;;5041757;28;20457;-63
2023/04/15 08:32:21;;;;;;;7.70;5.40;;;13.40;99.90;;;;;;5036097;28;20234;-63
2023/04/15 08:34:47;;;;;;;7.13;5.10;;;13.50;99.90;;;;;;5035036;28;20195;-63
2023/04/15 08:37:13;;;;;;;5.83;4.80;;;13.60;99.90;;;;;;5042333;28;20187;-63
2023/04/15 08:39:38;;;;;;;15.97;5.50;;;13.70;99.90;;;;;;5038353;28;20439;-63
2023/04/15 08:42:10;;;;;;;9.33;5.50;;;13.70;99.90;;;;;;5036537;28;20238;-63
2023/04/15 08:44:37;;;;;;;10.60;5.07;;;13.80;99.90;;;;;;5039530;28;20256;-63
2023/04/15 08:47:06;;;;;;;6.63;4.77;;;13.90;99.50;;;;;;5042351;28;20411;-63
2023/04/15 08:49:31;;;;;;;8.77;4.97;;;13.90;99.40;;;;;;5038864;28;20813;-63
2023/04/15 08:51:59;;;;;;;9.10;4.93;;;13.90;99.40;;;;;;5037288;28;20457;-62
2023/04/15 08:54:26;;;;;;;7.13;4.87;;;14.10;99.10;;;;;;5034945;28;20574;-63
2023/04/15 08:56:52;;;;;;;6.40;5.37;;;14.20;99.30;;;;;;5040151;28;20484;-62
2023/04/15 08:59:20;;;;;;;16.60;5.80;;;14.20;98.60;;;;;;5037646;28;20441;-62
2023/04/15 09:01:47;;;;;;;10.27;6.03;;;14.30;98.60;;;;;;5043867;28;20472;-62
2023/04/15 09:04:13;;;;;;;8.33;6.00;;;14.40;97.50;;;;;;5043793;28;20797;-63
2023/04/15 09:06:40;;;;;;;7.00;5.60;;;14.40;97.40;;;;;;5042465;28;20511;-63
2023/04/15 09:09:05;;;;;;;9.17;5.93;;;14.40;97.00;;;;;;5042972;28;20418;-63
2023/04/15 09:11:31;;;;;;;7.33;5.40;;;14.30;96.90;;;;;;5043197;28;20478;-63
2023/04/15 09:13:56;;;;;;;7.77;5.57;;;14.30;96.90;;;;;;5051222;28;20555;-62
2023/04/15 09:16:22;;;;;;;8.60;6.07;;;14.30;96.80;;;;;;5042261;28;20198;-63
2023/04/15 09:18:48;;;;;;;7.67;5.20;;;14.20;97.10;;;;;;5039805;28;20190;-62
2023/04/15 09:21:16;;;;;;;10.00;5.97;;;14.30;96.80;;;;;;5043709;28;20199;-63
2023/04/15 09:23:55;;;;;;;6.70;5.53;;;14.40;96.90;;;;;;5043128;28;20196;-63
2023/04/15 09:26:33;;;;;;;7.23;6.57;;;14.50;96.40;;;;;;5047445;28;20497;-63
2023/04/15 09:29:07;;;;;;;7.70;4.80;;;14.40;96.70;;;;;;5036166;28;20410;-63
2023/04/15 09:31:32;;;;;;;7.20;5.70;;;14.40;96.70;;;;;;5038800;28;21146;-63
2023/04/15 09:33:58;;;;;;;5.60;5.10;;;14.60;96.70;;;;;;5043577;28;20434;-63
2023/04/15 09:36:24;;;;;;;10.60;6.30;;;14.90;96.80;;;;;;5042361;28;20469;-63
2023/04/15 09:38:58;;;;;;;11.23;5.93;;;15.00;96.40;;;;;;5042882;28;20183;-63
2023/04/15 09:41:24;;;;;;;8.50;5.50;;;15.10;96.00;;;;;;5040058;28;20478;-63
2023/04/15 09:43:50;;;;;;;10.87;6.00;;;15.40;95.90;;;;;;5042413;28;20510;-63
2023/04/15 09:46:16;;;;;;;6.83;6.13;;;15.60;95.50;;;;;;5042725;28;20446;-63
2023/04/15 09:48:41;;;;;;;7.80;6.00;;;15.70;95.20;;;;;;5039623;28;20691;-63
2023/04/15 09:51:07;;;;;;;6.77;6.10;;;15.90;95.10;;;;;;5043846;28;20191;-63
2023/04/15 09:53:34;;;;;;;11.90;6.40;;;16.00;95.00;;;;;;5040027;28;20207;-63
2023/04/15 09:56:01;;;;;;;6.17;5.57;;;16.20;94.80;;;;;;5044346;28;20797;-63
2023/04/15 09:58:32;;;;;;;9.50;6.10;;;16.30;94.40;;;;;;5041697;28;20481;-63
2023/04/15 10:00:59;;;;;;;11.17;6.40;;;16.40;94.40;;;;;;5042264;28;20484;-63
2023/04/15 10:03:29;;;;;;;10.00;6.40;;;16.50;94.40;;;;;;5039279;28;20457;-64
2023/04/15 10:05:57;;;;;;;9.37;6.40;;;16.50;94.50;;;;;;5041501;28;21301;-63
2023/04/15 10:08:27;;;;;;;8.40;6.13;;;16.60;94.30;;;;;;5039426;28;20447;-63
2023/04/15 10:10:53;;;;;;;8.50;5.97;;;16.70;94.30;;;;;;5039475;28;20525;-63
2023/04/15 10:13:22;;;;;;;7.70;6.53;;;16.80;94.20;;;;;;5038428;28;20859;-63
2023/04/15 10:15:56;;;;;;;9.93;7.10;;;16.90;94.10;;;;;;5039732;28;20912;-63
2023/04/15 10:18:25;;;;;;;9.53;5.63;;;16.90;94.30;;;;;;5041521;28;20531;-63
2023/04/15 10:20:52;;;;;;;11.87;6.90;;;17.10;94.20;;;;;;5035889;28;20472;-63
2023/04/15 10:23:19;;;;;;;8.93;6.67;;;17.20;94.00;;;;;;5037095;28;21399;-64
2023/04/15 10:25:45;;;;;;;7.63;6.73;;;17.20;93.80;;;;;;5040321;28;20987;-64
2023/04/15 10:28:11;;;;;;;8.03;6.43;;;17.30;93.50;;;;;;5045297;28;20414;-64
2023/04/15 10:30:37;;;;;;;7.83;6.60;;;17.10;92.10;;;;;;5041674;28;20642;-64
2023/04/15 10:33:04;;;;;;;12.97;6.60;;;16.80;92.00;;;;;;5041426;28;20528;-64
2023/04/15 10:35:32;;;;;;;10.07;7.20;;;17.00;92.30;;;;;;5040395;28;20774;-64
2023/04/15 10:37:58;;;;;;;7.07;6.37;;;17.10;91.70;;;;;;5040375;28;20478;-64
2023/04/15 10:40:30;;;;;;;11.33;8.10;;;17.20;91.80;;;;;;5041653;28;20461;-64
2023/04/15 10:43:02;;;;;;;9.57;7.13;;;17.20;91.20;;;;;;5039484;28;20958;-64
2023/04/15 10:45:32;;;;;;;10.87;6.83;;;17.30;91.30;;;;;;5042031;28;20410;-64
2023/04/15 10:48:01;;;;;;;7.97;7.13;;;17.20;91.00;;;;;;5037997;28;20901;-64
2023/04/15 10:50:28;;;;;;;10.50;7.97;;;17.30;91.30;;;;;;5040072;28;20449;-64
2023/04/15 10:52:55;;;;;;;11.87;7.73;;;17.50;91.20;;;;;;5039058;28;20737;-64
2023/04/15 10:55:26;;;;;;;8.37;7.50;;;17.70;91.30;;;;;;5042573;28;20495;-64
2023/04/15 10:57:59;;;;;;;11.33;7.87;;;17.70;90.80;;;;;;5036542;28;20445;-64
2023/04/15 11:00:27;;;;;;;7.17;6.47;;;17.90;90.60;;;;;;5042111;28;20528;-64
2023/04/15 11:02:56;;;;;;;18.30;7.53;;;17.60;89.70;;;;;;5042383;28;20918;-64
2023/04/15 11:05:38;;;;;;;7.50;6.70;;;17.80;90.10;;;;;;5060766;28;20442;-64
2023/04/15 11:08:03;;;;;;;9.83;6.90;;;17.90;89.30;;;;;;5038315;28;20533;-64
2023/04/15 11:10:29;;;;;;;9.30;7.57;;;18.10;88.30;;;;;;5042662;28;20541;-64
2023/04/15 11:13:08;;;;;;;9.27;7.20;;;18.20;88.30;;;;;;5039668;28;20286;-64
2023/04/15 11:15:43;;;;;;;11.07;6.10;;;18.40;87.90;;;;;;5040908;28;20928;-64
2023/04/15 11:18:13;;;;;;;9.70;6.70;;;18.50;86.00;;;;;;5046445;28;20433;-64
2023/04/15 11:20:41;;;;;;;12.53;7.13;;;18.50;83.70;;;;;;5042306;28;20478;-64
2023/04/15 11:23:07;;;;;;;6.23;5.63;;;18.60;83.90;;;;;;5047488;28;20465;-64
2023/04/15 11:25:36;;;;;;;15.43;6.13;;;18.70;82.00;;;;;;5047452;28;20547;-64
2023/04/15 11:28:01;;;;;;;8.43;5.33;;;18.80;81.90;;;;;;5047938;28;20478;-64
2023/04/15 11:30:32;;;;;;;6.20;4.57;;;18.80;76.20;;;;;;5047845;28;20543;-64
2023/04/15 11:33:03;;;;;;;8.93;4.90;;;18.80;74.40;;;;;;5045870;28;20241;-64
2023/04/15 11:35:29;;;;;;;5.00;4.30;;;18.80;74.10;;;;;;5046762;28;20442;-64
2023/04/15 11:37:55;;;;;;;7.30;4.50;;;18.90;73.00;;;;;;5046615;28;20489;-64
2023/04/15 11:40:29;;;;;;;6.70;4.17;;;18.80;69.60;;;;;;5045737;28;20204;-64
2023/04/15 11:43:05;;;;;;;8.20;4.70;;;18.70;70.20;;;;;;5044508;28;20461;-64
2023/04/15 11:45:31;;;;;;;5.53;4.20;;;18.80;71.20;;;;;;5040758;28;20442;-64
2023/04/15 11:48:15;;;;;;;5.80;4.80;;;18.90;71.10;;;;;;5041673;28;20450;-64
2023/04/15 11:50:40;;;;;;;5.83;4.70;;;19.00;70.90;;;;;;5045585;28;20192;-64
2023/04/15 11:53:11;;;;;;;8.20;5.40;;;19.20;70.80;;;;;;5042859;28;20415;-64
2023/04/15 11:55:45;;;;;;;8.40;5.10;;;19.30;70.00;;;;;;5044125;28;20681;-64
2023/04/15 11:58:15;;;;;;;8.73;4.70;;;19.40;70.40;;;;;;5044716;28;20433;-64
2023/04/15 12:00:52;;;;;;;6.10;4.33;;;19.60;70.70;;;;;;5036954;28;20498;-64
2023/04/15 12:03:23;;;;;;;7.03;4.20;;;19.80;68.60;;;;;;5044373;28;20910;-64
2023/04/15 12:06:18;;;;;;;7.97;4.10;;;20.20;68.30;;;;;;5041366;28;20434;-64
2023/04/15 12:09:00;;;;;;;6.60;4.47;;;20.60;67.00;;;;;;5042380;28;20487;-63
2023/04/15 12:11:25;;;;;;;7.63;4.40;;;21.50;65.70;;;;;;5044364;28;20551;-64
2023/04/15 12:13:56;;;;;;;10.70;4.07;;;22.40;63.80;;;;;;5041548;28;20442;-64
2023/04/15 12:16:23;;;;;;;9.07;4.20;;;23.30;59.90;;;;;;5047279;28;20539;-64
2023/04/15 12:18:54;;;;;;;8.43;4.93;;;24.00;56.90;;;;;;5043563;28;20418;-64
2023/04/15 12:21:22;;;;;;;6.83;4.20;;;23.40;53.10;;;;;;5043847;28;20461;-64
2023/04/15 12:23:51;;;;;;;5.23;4.40;;;23.20;53.60;;;;;;5044314;28;20418;-64
2023/04/15 12:26:24;;;;;;;6.70;4.77;;;23.60;53.00;;;;;;5043018;28;20525;-64
2023/04/15 12:29:02;;;;;;;8.30;4.93;;;24.40;52.50;;;;;;5043879;28;20424;-64
2023/04/15 12:31:28;;;;;;;6.07;5.43;;;25.00;50.30;;;;;;5043731;28;20547;-64
2023/04/15 12:33:57;;;;;;;6.43;5.00;;;25.10;49.20;;;;;;5035090;28;20536;-64
2023/04/15 12:36:23;;;;;;;6.70;5.40;;;25.10;48.80;;;;;;5041445;28;20554;-64
2023/04/15 12:38:50;;;;;;;5.93;5.33;;;25.20;47.90;;;;;;5041352;28;20441;-64
2023/04/15 12:41:15;;;;;;;6.27;5.03;;;24.90;45.90;;;;;;5039641;28;20951;-64
2023/04/15 12:43:43;;;;;;;5.63;5.10;;;24.40;45.90;;;;;;5041565;28;20438;-64
2023/04/15 12:46:09;;;;;;;5.67;5.07;;;24.40;46.90;;;;;;5042283;28;20190;-64